TimeMST,TemperatureF,Dew PointF,Humidity,Sea Level PressureIn,VisibilityMPH,Wind Direction,Wind SpeedMPH,Gust SpeedMPH,PrecipitationIn,Events,Conditions,WindDirDegrees,DateUTC
12:15 AM,21.2,17.6,86,30.21,10.0,Calm,Calm,-,N/A,,Partly Cloudy,0,2013-02-28 07:15:00
12:35 AM,21.2,17.6,86,30.22,10.0,SW,3.5,-,N/A,,Partly Cloudy,230,2013-02-28 07:35:00
12:55 AM,23.0,19.4,86,30.21,10.0,SSW,3.5,-,N/A,,Partly Cloudy,210,2013-02-28 07:55:00
1:15 AM,23.0,19.4,86,30.22,10.0,SW,3.5,-,N/A,,Partly Cloudy,230,2013-02-28 08:15:00
1:35 AM,23.0,19.4,86,30.21,10.0,Calm,Calm,-,N/A,,Partly Cloudy,0,2013-02-28 08:35:00
1:55 AM,24.8,19.4,80,30.21,10.0,Calm,Calm,-,N/A,,Mostly Cloudy,0,2013-02-28 08:55:00
2:15 AM,24.8,19.4,80,30.21,10.0,South,3.5,-,N/A,,Overcast,170,2013-02-28 09:15:00
2:35 AM,24.8,19.4,80,30.21,10.0,Calm,Calm,-,N/A,,Mostly Cloudy,0,2013-02-28 09:35:00
2:55 AM,24.8,19.4,80,30.21,10.0,Calm,Calm,-,N/A,,Mostly Cloudy,0,2013-02-28 09:55:00
3:16 AM,24.8,19.4,80,30.20,10.0,Calm,Calm,-,N/A,,Mostly Cloudy,0,2013-02-28 10:16:00
3:35 AM,24.8,19.4,80,30.20,10.0,Calm,Calm,-,N/A,,Mostly Cloudy,0,2013-02-28 10:35:00
3:55 AM,24.8,19.4,80,30.20,10.0,Calm,Calm,-,N/A,,Scattered Clouds,0,2013-02-28 10:55:00
4:15 AM,23.0,19.4,86,30.20,10.0,ENE,3.5,-,N/A,,Scattered Clouds,60,2013-02-28 11:15:00
4:35 AM,23.0,21.2,93,30.19,10.0,ENE,3.5,-,N/A,,Mostly Cloudy,70,2013-02-28 11:35:00
5:15 AM,23.0,19.4,86,30.19,10.0,ENE,3.5,-,N/A,,Mostly Cloudy,70,2013-02-28 12:15:00
5:35 AM,23.0,19.4,86,30.18,10.0,East,3.5,-,N/A,,Overcast,90,2013-02-28 12:35:00
5:55 AM,23.0,19.4,86,30.19,10.0,Calm,Calm,-,N/A,,Overcast,0,2013-02-28 12:55:00
6:15 AM,23.0,19.4,86,30.18,10.0,Calm,Calm,-,N/A,,Overcast,0,2013-02-28 13:15:00
6:35 AM,23.0,19.4,86,30.18,10.0,Calm,Calm,-,N/A,,Overcast,0,2013-02-28 13:35:00
6:55 AM,21.2,17.6,86,30.18,8.0,Calm,Calm,-,N/A,,Mostly Cloudy,0,2013-02-28 13:55:00
7:15 AM,21.2,19.4,93,30.18,9.0,Calm,Calm,-,N/A,,Scattered Clouds,0,2013-02-28 14:15:00
7:35 AM,24.8,21.2,86,30.18,10.0,Calm,Calm,-,N/A,,Overcast,0,2013-02-28 14:35:00
7:55 AM,24.8,21.2,86,30.18,9.0,South,3.5,-,N/A,,Overcast,180,2013-02-28 14:55:00
8:15 AM,24.8,21.2,86,30.18,9.0,Calm,Calm,-,N/A,,Overcast,0,2013-02-28 15:15:00
8:35 AM,24.8,21.2,86,30.18,10.0,Calm,Calm,-,N/A,,Overcast,0,2013-02-28 15:35:00
8:55 AM,26.6,21.2,80,30.18,10.0,South,3.5,-,N/A,,Mostly Cloudy,180,2013-02-28 15:55:00
9:35 AM,28.4,24.8,86,30.17,10.0,SE,8.1,-,N/A,,Partly Cloudy,140,2013-02-28 16:35:00
9:55 AM,32.0,24.8,75,30.17,10.0,SSW,8.1,-,N/A,,Partly Cloudy,200,2013-02-28 16:55:00
10:15 AM,32.0,24.8,75,30.17,10.0,South,8.1,-,N/A,,Clear,170,2013-02-28 17:15:00
10:35 AM,33.8,24.8,70,30.16,10.0,South,8.1,-,N/A,,Clear,180,2013-02-28 17:35:00
10:56 AM,35.6,24.8,65,30.16,10.0,SSW,5.8,-,N/A,,Partly Cloudy,200,2013-02-28 17:56:00
11:15 AM,35.6,24.8,65,30.17,10.0,South,5.8,-,N/A,,Scattered Clouds,170,2013-02-28 18:15:00
11:35 AM,37.4,26.6,65,30.16,10.0,SSE,8.1,-,N/A,,Partly Cloudy,160,2013-02-28 18:35:00
11:55 AM,37.4,26.6,65,30.16,10.0,SSE,6.9,-,N/A,,Clear,150,2013-02-28 18:55:00
12:15 PM,39.2,26.6,61,30.15,10.0,SW,3.5,-,N/A,,Partly Cloudy,220,2013-02-28 19:15:00
12:35 PM,44.6,23.0,43,30.15,10.0,West,11.5,-,N/A,,Mostly Cloudy,280,2013-02-28 19:35:00
1:15 PM,42.8,21.2,42,30.13,10.0,WNW,11.5,18.4,N/A,,Mostly Cloudy,290,2013-02-28 20:15:00
1:35 PM,42.8,19.4,39,30.13,10.0,West,12.7,20.7,N/A,,Partly Cloudy,270,2013-02-28 20:35:00
1:55 PM,44.6,21.2,39,30.12,10.0,WNW,13.8,17.3,N/A,,Clear,300,2013-02-28 20:55:00
2:15 PM,44.6,21.2,39,30.12,10.0,WNW,12.7,-,N/A,,Clear,290,2013-02-28 21:15:00
2:35 PM,44.6,21.2,39,30.12,10.0,WNW,13.8,-,N/A,,Clear,290,2013-02-28 21:35:00
2:55 PM,44.6,19.4,37,30.13,10.0,WNW,16.1,24.2,N/A,,Clear,300,2013-02-28 21:55:00
3:15 PM,42.8,21.2,42,30.13,10.0,NW,17.3,21.9,N/A,,Clear,320,2013-02-28 22:15:00
3:35 PM,42.8,21.2,42,30.13,10.0,NNW,17.3,-,N/A,,Clear,330,2013-02-28 22:35:00
3:55 PM,41.0,21.2,45,30.14,10.0,NNW,16.1,19.6,N/A,,Clear,330,2013-02-28 22:55:00
4:55 PM,37.4,23.0,56,30.16,10.0,NW,13.8,-,N/A,,Clear,320,2013-02-28 23:55:00
5:15 PM,37.4,23.0,56,30.17,10.0,NW,10.4,-,N/A,,Clear,320,2013-03-01 00:15:00
5:35 PM,35.6,21.2,56,30.17,10.0,NW,8.1,-,N/A,,Clear,310,2013-03-01 00:35:00
6:15 PM,30.2,21.2,69,30.18,10.0,NNW,6.9,-,N/A,,Clear,330,2013-03-01 01:15:00
6:35 PM,30.2,21.2,69,30.18,10.0,NNW,3.5,-,N/A,,Clear,330,2013-03-01 01:35:00
6:55 PM,28.4,21.2,74,30.18,10.0,NW,3.5,-,N/A,,Clear,320,2013-03-01 01:55:00
7:15 PM,28.4,21.2,74,30.18,10.0,West,4.6,-,N/A,,Clear,260,2013-03-01 02:15:00
7:35 PM,28.4,21.2,74,30.18,10.0,North,6.9,-,N/A,,Clear,350,2013-03-01 02:35:00
7:55 PM,30.2,23.0,75,30.19,10.0,WNW,6.9,-,N/A,,Partly Cloudy,300,2013-03-01 02:55:00
8:15 PM,28.4,23.0,80,30.19,10.0,WNW,6.9,-,N/A,,Mostly Cloudy,290,2013-03-01 03:15:00
8:35 PM,30.2,23.0,75,30.19,10.0,WNW,8.1,-,N/A,,Mostly Cloudy,290,2013-03-01 03:35:00
8:55 PM,28.4,23.0,80,30.20,10.0,WNW,10.4,-,N/A,,Scattered Clouds,300,2013-03-01 03:55:00
9:15 PM,26.6,21.2,80,30.20,10.0,WNW,9.2,-,N/A,,Clear,290,2013-03-01 04:15:00
9:35 PM,26.6,21.2,80,30.21,10.0,WNW,8.1,-,N/A,,Clear,300,2013-03-01 04:35:00
10:35 PM,26.6,23.0,86,30.23,10.0,Calm,Calm,-,N/A,,Clear,0,2013-03-01 05:35:00
10:55 PM,23.0,19.4,86,30.23,10.0,SW,4.6,-,N/A,,Clear,230,2013-03-01 05:55:00
11:15 PM,24.8,19.4,80,30.23,10.0,WNW,5.8,-,N/A,,Clear,290,2013-03-01 06:15:00
11:35 PM,24.8,19.4,80,30.22,10.0,North,5.8,-,N/A,,Clear,350,2013-03-01 06:35:00
11:55 PM,24.8,19.4,80,30.21,10.0,NNW,8.1,-,N/A,,Clear,330,2013-03-01 06:55:00